createdAt,value
2022-11-10T00:04:49.653Z,54.1
2022-11-10T00:10:08.181Z,54.2
2022-11-10T00:15:26.650Z,53.8
2022-11-10T00:20:45.418Z,53.9
2022-11-10T00:26:03.950Z,53.6
2022-11-10T00:31:22.409Z,53.6
2022-11-10T00:36:40.353Z,54.1
2022-11-10T00:41:59.147Z,54.4
2022-11-10T00:47:17.877Z,53.5
2022-11-10T00:52:36.370Z,54.3
2022-11-10T00:57:54.887Z,54.6
2022-11-10T01:03:13.629Z,55
2022-11-10T01:08:32.110Z,55.2
2022-11-10T01:13:50.619Z,55.2
2022-11-10T01:19:09.369Z,54.9
2022-11-10T01:24:27.867Z,54.6
2022-11-10T01:29:46.109Z,54.7
2022-11-10T01:35:04.566Z,55
2022-11-10T01:40:23.084Z,54.4
2022-11-10T01:45:41.420Z,55
2022-11-10T01:50:59.591Z,55.1
2022-11-10T01:56:17.795Z,55.3
2022-11-10T02:01:36.301Z,54.4
2022-11-10T02:06:54.913Z,54.7
2022-11-10T02:12:13.202Z,55.5
2022-11-10T02:17:31.443Z,55.3
2022-11-10T02:22:49.901Z,55.1
2022-11-10T02:28:08.397Z,55
2022-11-10T02:33:26.623Z,54.5
2022-11-10T02:38:44.806Z,55.5
2022-11-10T02:44:03.010Z,54.3
2022-11-10T02:49:21.544Z,55.3
2022-11-10T02:54:39.717Z,54.6
2022-11-10T02:59:57.934Z,55.4
2022-11-10T03:05:16.440Z,55.3
2022-11-10T03:10:34.634Z,55.4
2022-11-10T03:15:53.409Z,55.5
2022-11-10T03:21:11.929Z,55
2022-11-10T03:26:30.478Z,54.8
2022-11-10T03:31:48.689Z,55.7
2022-11-10T03:37:06.948Z,55.6
2022-11-10T03:42:25.416Z,54.9
2022-11-10T03:47:43.899Z,54.9
2022-11-10T03:53:02.413Z,55.6
2022-11-10T03:58:20.605Z,55.8
2022-11-10T04:03:39.374Z,55.8
2022-11-10T04:08:57.901Z,55.6
2022-11-10T04:14:16.358Z,55.5
2022-11-10T04:19:34.840Z,55.8
2022-11-10T04:24:53.088Z,54.9
2022-11-10T04:30:11.560Z,55.4
2022-11-10T04:35:29.761Z,55.5
2022-11-10T04:40:48.281Z,56.1
2022-11-10T04:46:07.021Z,55.6
2022-11-10T04:51:25.113Z,55.8
2022-11-10T04:56:43.433Z,54.4
2022-11-10T05:02:02.181Z,54.2
2022-11-10T05:07:20.669Z,54.6
2022-11-10T05:12:39.195Z,54.6
2022-11-10T05:17:57.942Z,54.2
2022-11-10T05:23:16.713Z,55.1
2022-11-10T05:28:35.515Z,55.2
2022-11-10T05:33:53.976Z,43
2022-11-10T05:39:12.733Z,43.9
2022-11-10T05:44:31.257Z,44
2022-11-10T05:49:50.001Z,47.8
2022-11-10T05:55:09.176Z,49.7
2022-11-10T06:00:27.421Z,51
2022-11-10T06:05:45.605Z,51
2022-11-10T06:11:04.354Z,51.1
2022-11-10T06:16:23.167Z,52.2
2022-11-10T06:21:41.920Z,51.9
2022-11-10T06:27:00.684Z,51.5
2022-11-10T06:32:19.203Z,51.9
2022-11-10T06:37:37.949Z,51.8
2022-11-10T06:42:56.145Z,52.1
2022-11-10T06:48:14.672Z,52
2022-11-10T06:53:34.630Z,52
2022-11-10T06:58:53.090Z,52.1
2022-11-10T07:04:21.473Z,52.8
2022-11-10T07:09:39.668Z,52.4
2022-11-10T07:14:57.864Z,52.8
2022-11-10T07:20:16.652Z,52.9
2022-11-10T07:25:34.842Z,52.6
2022-11-10T07:30:53.330Z,52
2022-11-10T07:36:12.179Z,52.7
2022-11-10T07:41:30.636Z,52
2022-11-10T07:46:49.127Z,53
2022-11-10T07:52:07.939Z,52
2022-11-10T07:57:26.681Z,52.1
2022-11-10T08:02:45.169Z,52.8
2022-11-10T08:08:03.117Z,52
2022-11-10T08:13:22.970Z,52
2022-11-10T08:18:41.749Z,51.9
2022-11-10T08:24:00.284Z,52.2
2022-11-10T08:29:18.448Z,52.3
2022-11-10T08:34:36.646Z,52.8
2022-11-10T08:39:55.162Z,51.6
2022-11-10T08:45:13.627Z,52.4
2022-11-10T08:50:32.126Z,51.4
2022-11-10T08:55:50.789Z,52
2022-11-10T09:01:08.688Z,51.8
2022-11-10T09:06:27.448Z,52.1
2022-11-10T09:11:45.687Z,52
2022-11-10T09:17:04.415Z,51.4
2022-11-10T09:22:22.613Z,51.5
2022-11-10T09:27:41.137Z,51
2022-11-10T09:32:59.882Z,51.9
2022-11-10T09:38:18.091Z,51.8
2022-11-10T09:43:36.346Z,51.9
2022-11-10T09:48:54.804Z,51.7
2022-11-10T09:54:13.001Z,51
2022-11-10T09:59:31.231Z,51.8
2022-11-10T10:04:52.966Z,51.2
2022-11-10T10:10:18.417Z,51.5
2022-11-10T10:15:36.941Z,51.8
2022-11-10T10:20:55.413Z,51
2022-11-10T10:26:13.612Z,51
2022-11-10T10:31:32.152Z,51.6
2022-11-10T10:36:50.330Z,51.8
2022-11-10T10:42:09.089Z,51.6
2022-11-10T10:47:27.875Z,50.9
2022-11-10T10:52:46.355Z,51.8
2022-11-10T10:58:04.576Z,51.7
2022-11-10T11:03:23.095Z,50.9
2022-11-10T11:08:41.833Z,51.1
2022-11-10T11:14:00.236Z,51
2022-11-10T11:19:18.739Z,51.1
2022-11-10T11:24:37.204Z,51.3
2022-11-10T11:29:55.698Z,51.8
2022-11-10T11:35:13.937Z,51.9
2022-11-10T11:40:32.112Z,51.1
2022-11-10T11:45:50.600Z,51.7
2022-11-10T11:51:09.194Z,51.8
2022-11-10T11:56:27.368Z,51.3
2022-11-10T12:01:46.142Z,50.8
2022-11-10T12:07:04.931Z,51.7
2022-11-10T12:12:23.511Z,51.6
2022-11-10T12:17:41.725Z,51.5
2022-11-10T12:23:00.251Z,52.1
2022-11-10T12:28:19.368Z,52
2022-11-10T12:33:37.614Z,51.3
2022-11-10T12:39:01.151Z,51.7
2022-11-10T12:44:19.881Z,52.1
2022-11-10T12:49:38.105Z,52
2022-11-10T12:54:56.340Z,52.2
2022-11-10T13:00:28.562Z,51.5
2022-11-10T13:05:47.210Z,52.3
2022-11-10T13:11:05.999Z,52.1
2022-11-10T13:16:24.466Z,52.3
2022-11-10T13:21:42.959Z,52.1
2022-11-10T13:27:01.367Z,52.4
2022-11-10T13:32:19.827Z,52.4
2022-11-10T13:37:38.309Z,52.5
2022-11-10T13:42:57.112Z,52.6
2022-11-10T13:48:15.858Z,52.4
2022-11-10T13:53:34.341Z,51.6
2022-11-10T13:58:53.127Z,51.8
2022-11-10T14:04:11.811Z,52
2022-11-10T14:09:30.282Z,51.7
2022-11-10T14:14:54.054Z,52.3
2022-11-10T14:19:56.895Z,52.5
2022-11-10T14:25:15.396Z,52.2
2022-11-10T14:30:34.259Z,52.5
2022-11-10T14:35:52.420Z,52.7
2022-11-10T14:41:10.908Z,52.3
2022-11-10T14:46:29.682Z,52.3
2022-11-10T14:51:47.855Z,51.9
2022-11-10T14:57:06.347Z,52.7
2022-11-10T15:02:25.743Z,51.9
2022-11-10T15:07:44.263Z,52
2022-11-10T15:13:03.035Z,52.3
2022-11-10T15:18:23.152Z,52.7
2022-11-10T15:23:41.807Z,52.4
2022-11-10T15:29:00.568Z,51.9
2022-11-10T15:34:19.109Z,52.5
2022-11-10T15:39:38.054Z,52.1
2022-11-10T15:44:56.523Z,52.9
2022-11-10T15:50:14.821Z,52.1
2022-11-10T15:55:33.045Z,52
2022-11-10T16:00:51.533Z,52.9
2022-11-10T16:06:10.121Z,53
2022-11-10T16:11:28.048Z,52.7
2022-11-10T16:16:46.539Z,52.1
2022-11-10T16:22:04.800Z,52.1
2022-11-10T16:27:22.757Z,52.8
2022-11-10T16:32:41.233Z,52.9
2022-11-10T16:37:59.795Z,52.1
2022-11-10T16:43:18.572Z,52
2022-11-10T16:48:37.375Z,52.5
2022-11-10T16:53:55.909Z,53.1
2022-11-10T16:59:14.138Z,52.9
2022-11-10T17:04:32.903Z,52.2
2022-11-10T17:09:51.797Z,52.6
2022-11-10T17:15:10.633Z,53
2022-11-10T17:20:29.409Z,52.3
2022-11-10T17:25:47.956Z,53.1
2022-11-10T17:31:06.437Z,52.5
2022-11-10T17:36:24.921Z,53.1
2022-11-10T17:41:43.968Z,53.1
2022-11-10T17:46:46.886Z,52.9
2022-11-10T17:52:05.380Z,53.4
2022-11-10T17:57:24.424Z,52.3
2022-11-10T18:02:43.155Z,51.4
2022-11-10T18:08:01.918Z,51.7
2022-11-10T18:13:21.590Z,51.8
2022-11-10T18:18:40.350Z,51.4
2022-11-10T18:23:59.120Z,52.1
2022-11-10T18:29:17.875Z,51.2
2022-11-10T18:34:36.603Z,51.6
2022-11-10T18:39:55.429Z,51.7
2022-11-10T18:45:14.500Z,50.3
2022-11-10T18:50:33.266Z,50.3
2022-11-10T18:55:52.064Z,51
2022-11-10T19:01:11.460Z,51
2022-11-10T19:06:30.371Z,50.4
2022-11-10T19:11:49.224Z,50.7
2022-11-10T19:16:52.167Z,51.3
2022-11-10T19:22:10.684Z,50.7
2022-11-10T19:27:29.167Z,50.9
2022-11-10T19:32:47.773Z,51.8
2022-11-10T19:37:50.395Z,51.6
2022-11-10T19:43:08.884Z,51
2022-11-10T19:48:27.819Z,51.3
2022-11-10T19:53:46.042Z,52.2
2022-11-10T19:59:04.524Z,51.7
2022-11-10T20:04:07.469Z,51.1
2022-11-10T20:09:25.876Z,50.7
2022-11-10T20:14:44.256Z,50.7
2022-11-10T20:20:02.735Z,52.8
2022-11-10T20:25:21.154Z,49.1
2022-11-10T20:30:39.604Z,51.7
2022-11-10T20:35:57.844Z,51
2022-11-10T20:41:16.046Z,52
2022-11-10T20:46:56.030Z,51.2
2022-11-10T20:52:14.320Z,51.2
2022-11-10T20:57:33.022Z,51.1
2022-11-10T21:02:51.239Z,51.2
2022-11-10T21:08:10.529Z,51.4
2022-11-10T21:13:29.327Z,51.5
2022-11-10T21:18:47.815Z,52
2022-11-10T21:24:06.665Z,52.3
2022-11-10T21:29:24.880Z,51.4
2022-11-10T21:34:46.391Z,51.6
2022-11-10T21:40:04.912Z,51.7
2022-11-10T21:45:23.427Z,51.5
2022-11-10T21:50:42.174Z,51.8
2022-11-10T21:56:01.251Z,51.3
2022-11-10T22:01:20.299Z,52
2022-11-10T22:06:38.301Z,52.5
2022-11-10T22:11:40.981Z,51.4
2022-11-10T22:16:59.207Z,51.9
2022-11-10T22:22:17.957Z,51.9
2022-11-10T22:27:36.737Z,51.8
2022-11-10T22:32:55.176Z,52.3
2022-11-10T22:38:13.675Z,51.7
2022-11-10T22:43:32.514Z,52.5
2022-11-10T22:48:50.990Z,52.1
2022-11-10T22:54:09.762Z,52.2
2022-11-10T22:59:28.900Z,52.7
2022-11-10T23:04:47.411Z,51.8
2022-11-10T23:10:05.615Z,49.7
2022-11-10T23:15:24.387Z,51.9
2022-11-10T23:20:42.836Z,52.2
2022-11-10T23:26:01.319Z,52.4
2022-11-10T23:31:19.912Z,51.8
2022-11-10T23:36:38.716Z,52.2
2022-11-10T23:41:41.000Z,52.4
2022-11-10T23:46:59.856Z,52.1
2022-11-10T23:52:18.349Z,52.8
2022-11-10T23:57:36.847Z,52.1
